Time;durP1;ratioP1;P1;durP2;ratioP2;P2;SDS_P1;SDS_P2;PMS_P1;PMS_P2;Temp;Humidity;BMP_temperature;BMP_pressure;BME280_temperature;BME280_humidity;BME280_pressure;Samples;Min_cycle;Max_cycle;Signal;HPM_P1;HPM_P2
2022/01/05 00:00:36;;;;;;;10.13;3.93;;;5.60;99.90;;;;;;4128384;28;20611;-80
2022/01/05 00:02:39;;;;;;;5.87;3.80;;;5.70;99.90;;;;;;4130548;28;20468;-82
2022/01/05 00:04:41;;;;;;;7.00;4.23;;;5.60;99.90;;;;;;4128456;28;21118;-79
2022/01/05 00:06:43;;;;;;;6.37;3.90;;;5.60;99.90;;;;;;4126624;28;20477;-78
2022/01/05 00:08:45;;;;;;;12.00;4.70;;;6.00;99.90;;;;;;4131932;28;20472;-78
2022/01/05 00:10:47;;;;;;;8.33;4.43;;;5.60;99.90;;;;;;4129491;28;20448;-79
2022/01/05 00:12:49;;;;;;;8.40;4.37;;;5.60;99.90;;;;;;4128371;28;20472;-79
2022/01/05 00:14:50;;;;;;;7.50;4.43;;;5.90;99.90;;;;;;4124347;28;20487;-79
2022/01/05 00:16:54;;;;;;;8.03;4.63;;;5.60;99.90;;;;;;4128966;28;20829;-82
2022/01/05 00:18:55;;;;;;;9.67;4.63;;;5.80;99.90;;;;;;4125926;28;21123;-82
2022/01/05 00:20:57;;;;;;;10.17;5.17;;;5.60;99.90;;;;;;4128076;28;20471;-79
2022/01/05 00:22:59;;;;;;;10.57;6.07;;;5.70;99.90;;;;;;4130253;28;20503;-79
2022/01/05 00:25:01;;;;;;;12.93;6.53;;;5.60;99.90;;;;;;4125253;28;20485;-80
2022/01/05 00:27:03;;;;;;;12.27;6.10;;;5.50;99.90;;;;;;4125664;28;20451;-78
2022/01/05 00:29:06;;;;;;;13.07;6.27;;;5.60;99.90;;;;;;4129233;28;20460;-80
2022/01/05 00:31:08;;;;;;;12.73;6.60;;;5.60;99.90;;;;;;4125696;28;20440;-78
2022/01/05 00:33:12;;;;;;;13.13;6.27;;;5.60;99.90;;;;;;4122093;28;20470;-79
2022/01/05 00:35:14;;;;;;;13.43;6.57;;;5.60;99.90;;;;;;4129600;28;20482;-79
2022/01/05 00:37:16;;;;;;;15.87;6.53;;;5.60;99.90;;;;;;4131120;28;20522;-82
2022/01/05 00:39:18;;;;;;;15.03;6.57;;;5.60;99.90;;;;;;4128910;28;20479;-80
2022/01/05 00:41:20;;;;;;;14.07;6.43;;;5.60;99.90;;;;;;4126918;28;20447;-80
2022/01/05 00:43:22;;;;;;;12.07;5.87;;;5.60;99.90;;;;;;4127900;28;20475;-81
2022/01/05 00:45:24;;;;;;;12.17;6.10;;;5.60;99.90;;;;;;4129471;28;20450;-80
2022/01/05 00:47:25;;;;;;;15.30;6.33;;;5.60;99.90;;;;;;4132348;28;20509;-78
2022/01/05 00:49:28;;;;;;;11.03;5.90;;;5.60;99.90;;;;;;4129606;28;20455;-79
2022/01/05 00:51:30;;;;;;;15.13;6.13;;;5.60;99.90;;;;;;4129060;28;21036;-79
2022/01/05 00:53:32;;;;;;;13.13;5.80;;;5.60;99.90;;;;;;4125046;28;20481;-79
2022/01/05 00:55:34;;;;;;;12.00;5.73;;;5.60;99.90;;;;;;4113476;28;20449;-79
2022/01/05 00:57:36;;;;;;;9.93;5.10;;;5.60;99.90;;;;;;4111364;28;20496;-80
2022/01/05 00:59:38;;;;;;;11.63;5.23;;;5.60;99.90;;;;;;4112077;28;21033;-78
2022/01/05 01:01:40;;;;;;;11.10;5.50;;;5.80;99.90;;;;;;4113669;28;20507;-79
2022/01/05 01:03:41;;;;;;;8.83;4.80;;;5.60;99.90;;;;;;4109857;28;20477;-82
2022/01/05 01:05:45;;;;;;;10.83;5.00;;;5.60;99.90;;;;;;4109057;28;20993;-82
2022/01/05 01:07:47;;;;;;;8.03;4.53;;;5.30;99.90;;;;;;4110974;28;20468;-80
2022/01/05 01:09:48;;;;;;;11.47;4.50;;;5.60;99.90;;;;;;4114027;28;20601;-79
2022/01/05 01:11:50;;;;;;;7.27;4.03;;;5.60;99.90;;;;;;4110680;28;20917;-78
2022/01/05 01:13:52;;;;;;;8.57;3.97;;;5.60;99.90;;;;;;4114176;28;20489;-78
2022/01/05 01:15:54;;;;;;;7.87;4.23;;;5.60;99.90;;;;;;4112743;28;20481;-78
2022/01/05 01:17:56;;;;;;;6.73;3.97;;;5.60;99.90;;;;;;4112732;28;20543;-80
2022/01/05 01:19:58;;;;;;;6.83;3.67;;;5.60;99.90;;;;;;4115100;28;20866;-80
2022/01/05 01:22:01;;;;;;;7.93;3.90;;;5.60;99.90;;;;;;4110046;28;20473;-79
2022/01/05 01:24:03;;;;;;;6.73;3.40;;;5.50;99.90;;;;;;4112249;28;20499;-80
2022/01/05 01:26:05;;;;;;;6.67;3.43;;;5.50;99.90;;;;;;4111425;28;20481;-79
2022/01/05 01:28:07;;;;;;;7.00;3.77;;;5.50;99.90;;;;;;4112920;28;20514;-79
2022/01/05 01:30:10;;;;;;;5.63;3.33;;;5.50;99.90;;;;;;4113017;28;20465;-80
2022/01/05 01:32:12;;;;;;;7.03;3.77;;;5.60;99.90;;;;;;4114736;28;20502;-80
2022/01/05 01:34:14;;;;;;;8.10;3.20;;;5.60;99.90;;;;;;4109569;28;20496;-78
2022/01/05 01:36:16;;;;;;;4.97;3.23;;;5.60;99.90;;;;;;4114494;28;20464;-79
2022/01/05 01:38:19;;;;;;;7.63;3.70;;;5.60;99.90;;;;;;4112939;28;21009;-80
2022/01/05 01:40:21;;;;;;;5.67;3.20;;;5.60;99.90;;;;;;4113842;28;20462;-78
2022/01/05 01:42:23;;;;;;;7.73;3.33;;;5.70;99.90;;;;;;4116639;28;20452;-78
2022/01/05 01:44:25;;;;;;;5.63;3.10;;;5.50;99.90;;;;;;4112650;28;20596;-78
2022/01/05 01:46:27;;;;;;;7.20;3.20;;;5.50;99.90;;;;;;4115679;28;20880;-79
2022/01/05 01:48:29;;;;;;;6.07;3.30;;;5.50;99.90;;;;;;4113404;28;20874;-79
2022/01/05 01:50:31;;;;;;;6.03;3.03;;;5.50;99.90;;;;;;4116525;28;20467;-78
2022/01/05 01:52:33;;;;;;;7.23;3.23;;;5.70;99.90;;;;;;4114262;28;20479;-80
2022/01/05 01:54:38;;;;;;;9.90;3.27;;;5.50;99.90;;;;;;4122246;28;21389;-82
2022/01/05 01:56:40;;;;;;;4.50;2.80;;;5.50;99.90;;;;;;4132230;28;20499;-80
2022/01/05 01:58:44;;;;;;;6.60;3.00;;;5.50;99.90;;;;;;4129740;28;20594;-79
2022/01/05 02:00:46;;;;;;;5.33;3.00;;;5.50;99.90;;;;;;4132113;28;20464;-79
2022/01/05 02:02:51;;;;;;;5.43;2.53;;;5.50;99.90;;;;;;4129012;28;20467;-78
2022/01/05 02:04:54;;;;;;;4.40;2.33;;;5.50;99.90;;;;;;4130340;28;20479;-79
2022/01/05 02:06:56;;;;;;;4.53;2.77;;;5.50;99.90;;;;;;4127307;28;20509;-78
2022/01/05 02:08:59;;;;;;;3.93;2.50;;;5.50;99.90;;;;;;4131219;28;20884;-79
2022/01/05 02:11:02;;;;;;;4.20;2.63;;;5.60;99.90;;;;;;4124517;28;20456;-78
2022/01/05 02:13:05;;;;;;;4.67;2.80;;;5.60;99.90;;;;;;4125378;28;20929;-78
2022/01/05 02:15:08;;;;;;;4.10;2.47;;;5.60;99.90;;;;;;4127954;28;20523;-78
2022/01/05 02:17:18;;;;;;;6.83;2.83;;;5.50;99.90;;;;;;4123429;28;20460;-78
2022/01/05 02:19:20;;;;;;;3.67;2.50;;;5.50;99.90;;;;;;4127188;28;20487;-78
2022/01/05 02:21:23;;;;;;;5.80;3.07;;;5.80;99.90;;;;;;4120236;28;20519;-78
2022/01/05 02:23:25;;;;;;;4.97;2.43;;;5.50;99.90;;;;;;4116357;28;20471;-80
2022/01/05 02:25:27;;;;;;;5.00;2.83;;;5.50;99.90;;;;;;4135623;28;20476;-78
2022/01/05 02:27:29;;;;;;;6.80;3.10;;;5.50;99.90;;;;;;4137104;28;20468;-80
2022/01/05 02:29:31;;;;;;;9.60;3.63;;;5.40;99.90;;;;;;4132322;28;20530;-78
2022/01/05 02:31:33;;;;;;;7.43;3.63;;;5.30;99.90;;;;;;4127742;28;20488;-78
2022/01/05 02:33:35;;;;;;;7.60;3.70;;;5.30;99.90;;;;;;4129042;28;20497;-78
2022/01/05 02:35:37;;;;;;;8.63;3.47;;;5.20;99.90;;;;;;4137737;28;20444;-79
2022/01/05 02:37:45;;;;;;;9.10;3.47;;;5.20;99.90;;;;;;4132722;28;20881;-78
2022/01/05 02:39:46;;;;;;;8.97;3.13;;;5.10;99.90;;;;;;4130754;28;20855;-79
2022/01/05 02:41:49;;;;;;;7.43;2.93;;;5.00;99.90;;;;;;4143364;28;20441;-79
2022/01/05 02:43:52;;;;;;;6.07;2.53;;;4.90;99.90;;;;;;4133655;28;20472;-79
2022/01/05 02:45:54;;;;;;;7.83;3.13;;;4.90;99.90;;;;;;4135219;28;20472;-79
2022/01/05 02:47:56;;;;;;;4.90;2.60;;;4.80;99.90;;;;;;4126766;28;20472;-80
2022/01/05 02:49:58;;;;;;;8.40;2.43;;;4.80;99.90;;;;;;4129786;28;20455;-81
2022/01/05 02:52:00;;;;;;;8.43;2.60;;;4.70;99.90;;;;;;4120536;28;20464;-80
2022/01/05 02:54:03;;;;;;;5.00;2.60;;;4.60;99.90;;;;;;4122228;28;20579;-80
2022/01/05 02:56:06;;;;;;;4.87;2.30;;;4.60;99.90;;;;;;4125006;28;21048;-78
2022/01/05 02:58:07;;;;;;;5.50;2.87;;;4.60;99.90;;;;;;4134795;28;20867;-79
2022/01/05 03:00:13;;;;;;;6.70;2.10;;;4.50;99.90;;;;;;4145317;28;20468;-79
2022/01/05 03:02:15;;;;;;;3.47;1.73;;;4.50;99.90;;;;;;4130795;28;20518;-79
2022/01/05 03:04:17;;;;;;;2.80;1.57;;;4.40;99.90;;;;;;4132697;28;20491;-79
2022/01/05 03:06:18;;;;;;;6.20;1.80;;;4.30;99.90;;;;;;4128319;28;20465;-80
2022/01/05 03:08:21;;;;;;;5.00;1.60;;;4.30;99.90;;;;;;4124208;28;20507;-79
2022/01/05 03:10:24;;;;;;;4.10;1.57;;;4.30;99.90;;;;;;4123549;28;20453;-80
2022/01/05 03:12:26;;;;;;;2.53;1.37;;;4.20;99.90;;;;;;4121485;28;20468;-78
2022/01/05 03:14:27;;;;;;;2.97;1.30;;;4.10;99.90;;;;;;4122716;28;21031;-79
2022/01/05 03:16:30;;;;;;;2.00;1.20;;;4.00;99.90;;;;;;4119614;28;20464;-81
2022/01/05 03:18:32;;;;;;;5.90;2.00;;;4.00;99.90;;;;;;4120862;28;20575;-79
2022/01/05 03:20:34;;;;;;;2.80;1.33;;;3.90;99.90;;;;;;4123638;28;20478;-79
2022/01/05 03:22:37;;;;;;;3.97;1.63;;;3.90;99.90;;;;;;4125508;28;20488;-78
2022/01/05 03:24:38;;;;;;;3.20;1.40;;;3.80;99.90;;;;;;4124941;28;20492;-81
2022/01/05 03:26:41;;;;;;;6.67;2.00;;;3.70;99.90;;;;;;4132917;28;20447;-82
2022/01/05 03:28:43;;;;;;;4.47;1.60;;;3.70;99.90;;;;;;4126889;28;20692;-81
2022/01/05 03:30:45;;;;;;;5.17;1.60;;;3.70;99.90;;;;;;4125246;28;20467;-83
2022/01/05 03:33:08;;;;;;;4.20;1.53;;;3.70;99.90;;;;;;4122921;28;20471;-82
2022/01/05 03:35:10;;;;;;;4.27;1.70;;;3.60;99.90;;;;;;4119862;28;20484;-78
2022/01/05 03:37:12;;;;;;;2.97;1.60;;;3.70;99.90;;;;;;4120295;28;20451;-82
2022/01/05 03:39:14;;;;;;;3.63;1.53;;;3.70;99.90;;;;;;4125098;28;20530;-82
2022/01/05 03:41:16;;;;;;;2.37;1.50;;;3.60;99.90;;;;;;4132470;28;20471;-82
2022/01/05 03:43:19;;;;;;;3.57;1.60;;;3.60;99.90;;;;;;4131739;28;20475;-84
2022/01/05 03:45:21;;;;;;;4.57;1.63;;;3.60;99.90;;;;;;4132071;28;20963;-82
2022/01/05 03:47:23;;;;;;;3.87;1.63;;;3.60;99.90;;;;;;4128558;28;20515;-82
2022/01/05 03:49:24;;;;;;;5.40;1.80;;;3.60;99.90;;;;;;4121865;28;20876;-80
2022/01/05 03:51:26;;;;;;;5.50;2.30;;;3.50;99.90;;;;;;4122044;28;20510;-80
2022/01/05 03:53:28;;;;;;;6.53;2.40;;;3.50;99.90;;;;;;4122725;28;20480;-82
2022/01/05 03:55:30;;;;;;;5.27;2.60;;;3.50;99.90;;;;;;4131805;28;20456;-83
2022/01/05 03:57:32;;;;;;;6.63;3.10;;;3.40;99.90;;;;;;4132137;28;20439;-82
2022/01/05 03:59:35;;;;;;;6.47;3.77;;;3.30;99.90;;;;;;4133462;28;20492;-80
2022/01/05 04:01:37;;;;;;;5.87;2.77;;;3.30;99.90;;;;;;4131679;28;20477;-80
2022/01/05 04:03:39;;;;;;;4.73;2.77;;;3.30;99.90;;;;;;4127933;28;20488;-79
2022/01/05 04:05:41;;;;;;;4.93;3.33;;;3.30;99.90;;;;;;4121872;28;20457;-83
2022/01/05 04:07:43;;;;;;;7.03;3.37;;;3.30;99.90;;;;;;4122062;28;20503;-82
2022/01/05 04:09:45;;;;;;;5.13;2.83;;;3.40;99.90;;;;;;4131412;28;20471;-82
2022/01/05 04:11:47;;;;;;;8.20;3.10;;;3.20;99.90;;;;;;4132437;28;20463;-82
2022/01/05 04:15:57;;;;;;;7.37;3.47;;;3.20;99.90;;;;;;4142263;28;20505;-83
2022/01/05 04:17:59;;;;;;;5.10;3.17;;;3.10;99.90;;;;;;4148445;28;20510;-83
2022/01/05 04:20:01;;;;;;;7.97;3.40;;;3.10;99.90;;;;;;4144742;28;20518;-82
2022/01/05 04:22:03;;;;;;;6.07;3.63;;;3.10;99.90;;;;;;4148405;28;20465;-83
2022/01/05 04:24:06;;;;;;;6.27;3.23;;;3.10;99.90;;;;;;4147094;28;20478;-83
2022/01/05 04:28:09;;;;;;;7.87;3.47;;;3.10;99.90;;;;;;4154643;22;20569;-79
2022/01/05 04:30:13;;;;;;;4.33;3.00;;;3.10;99.90;;;;;;4131289;28;20503;-79
2022/01/05 04:32:16;;;;;;;5.07;3.00;;;3.10;99.90;;;;;;4127793;28;20558;-79
2022/01/05 04:34:19;;;;;;;5.67;3.23;;;3.00;99.90;;;;;;4132577;28;20467;-79
2022/01/05 04:36:21;;;;;;;8.00;3.60;;;3.10;99.90;;;;;;4139676;28;20463;-79
2022/01/05 04:38:22;;;;;;;6.13;3.00;;;3.00;99.90;;;;;;4128618;28;20478;-79
2022/01/05 04:40:24;;;;;;;7.77;3.00;;;3.00;99.90;;;;;;4129989;28;20506;-79
2022/01/05 04:42:26;;;;;;;5.20;3.13;;;3.00;99.90;;;;;;4131791;28;20518;-79
2022/01/05 04:44:28;;;;;;;5.23;2.67;;;3.00;99.90;;;;;;4131042;28;20598;-79
2022/01/05 04:46:30;;;;;;;6.77;3.30;;;3.00;99.90;;;;;;4146165;28;20897;-79
2022/01/05 04:48:33;;;;;;;5.77;3.07;;;3.00;99.90;;;;;;4129359;28;20474;-79
2022/01/05 04:50:35;;;;;;;8.00;2.93;;;3.00;99.90;;;;;;4130029;28;20455;-79
2022/01/05 04:52:36;;;;;;;3.70;2.50;;;2.90;99.90;;;;;;4131774;28;20520;-79
2022/01/05 04:54:38;;;;;;;6.03;2.70;;;2.90;99.90;;;;;;4131383;28;20795;-79
2022/01/05 04:56:40;;;;;;;7.20;2.53;;;2.80;99.90;;;;;;4129726;28;20837;-79
2022/01/05 04:58:41;;;;;;;7.20;3.33;;;2.80;99.90;;;;;;4140329;28;20469;-79
2022/01/05 05:00:43;;;;;;;6.23;2.80;;;2.70;99.90;;;;;;4147469;28;20491;-79
2022/01/05 05:02:45;;;;;;;5.53;2.80;;;2.60;99.90;;;;;;4149061;28;20474;-79
2022/01/05 05:04:48;;;;;;;5.57;2.83;;;2.50;99.90;;;;;;4146355;28;21026;-78
2022/01/05 05:06:50;;;;;;;5.40;2.40;;;2.50;99.90;;;;;;4148310;28;20716;-79
2022/01/05 05:08:51;;;;;;;5.57;2.67;;;2.40;99.90;;;;;;4150776;28;20456;-79
2022/01/05 05:10:53;;;;;;;5.27;2.50;;;2.30;99.90;;;;;;4146648;28;20454;-79
2022/01/05 05:12:55;;;;;;;4.20;2.40;;;2.20;99.90;;;;;;4147454;28;20466;-79
2022/01/05 05:14:57;;;;;;;6.10;2.57;;;2.10;99.90;;;;;;4148104;28;20477;-79
2022/01/05 05:16:58;;;;;;;4.00;2.10;;;2.00;99.90;;;;;;4150201;28;20475;-79
2022/01/05 05:19:00;;;;;;;2.97;1.93;;;1.90;99.90;;;;;;4146163;28;20453;-79
2022/01/05 05:21:04;;;;;;;6.93;2.40;;;1.90;99.90;;;;;;4143412;28;20477;-79
2022/01/05 05:23:05;;;;;;;2.93;1.90;;;1.80;99.90;;;;;;4145659;28;20867;-79
2022/01/05 05:25:08;;;;;;;4.30;2.07;;;1.80;99.90;;;;;;4149614;28;20460;-79
2022/01/05 05:27:10;;;;;;;3.87;1.80;;;1.70;99.90;;;;;;4148351;28;20504;-79
2022/01/05 05:29:12;;;;;;;2.97;1.77;;;1.70;99.90;;;;;;4142947;28;20889;-79
2022/01/05 05:31:14;;;;;;;4.17;1.50;;;1.60;99.90;;;;;;4144196;28;20457;-79
2022/01/05 05:33:15;;;;;;;5.70;1.80;;;1.60;99.90;;;;;;4153485;28;20473;-79
2022/01/05 05:35:17;;;;;;;2.47;1.70;;;1.50;99.90;;;;;;4149829;28;20461;-78
2022/01/05 05:37:20;;;;;;;3.20;1.80;;;1.50;99.90;;;;;;4150060;28;20531;-78
2022/01/05 05:39:22;;;;;;;3.87;1.80;;;1.50;99.90;;;;;;4149935;28;20544;-78
2022/01/05 05:41:24;;;;;;;4.63;1.87;;;1.40;99.90;;;;;;4150945;28;20468;-78
2022/01/05 05:43:26;;;;;;;7.47;2.07;;;1.40;99.90;;;;;;4149430;28;20843;-78
2022/01/05 05:45:27;;;;;;;3.77;2.20;;;1.40;99.90;;;;;;4148868;28;21032;-78
2022/01/05 05:47:30;;;;;;;4.73;2.07;;;1.30;99.90;;;;;;4150133;28;20492;-78
2022/01/05 05:49:31;;;;;;;4.90;2.13;;;1.30;99.90;;;;;;4149597;28;20463;-78
2022/01/05 05:51:33;;;;;;;6.27;2.20;;;1.30;99.90;;;;;;4149838;28;20476;-79
2022/01/05 05:53:36;;;;;;;3.37;1.87;;;1.30;99.90;;;;;;4146708;28;20474;-79
2022/01/05 05:55:38;;;;;;;3.90;1.90;;;1.30;99.90;;;;;;4149665;28;20498;-78
2022/01/05 05:57:40;;;;;;;4.27;2.00;;;1.20;99.90;;;;;;4149650;28;20497;-77
2022/01/05 05:59:42;;;;;;;3.67;1.80;;;1.80;99.90;;;;;;4151010;28;20495;-78
2022/01/05 06:01:43;;;;;;;6.60;2.67;;;1.20;99.90;;;;;;4143516;28;21106;-78
2022/01/05 06:03:45;;;;;;;4.97;2.17;;;1.20;99.90;;;;;;4145750;28;20455;-79
2022/01/05 06:05:47;;;;;;;4.07;1.80;;;1.20;99.90;;;;;;4149493;28;20447;-79
2022/01/05 06:07:49;;;;;;;2.90;1.60;;;1.20;99.90;;;;;;4148496;28;20974;-78
2022/01/05 06:09:52;;;;;;;4.33;1.90;;;1.70;99.90;;;;;;4148448;28;20452;-81
2022/01/05 06:11:53;;;;;;;3.43;1.93;;;1.20;99.90;;;;;;4144307;28;21055;-79
2022/01/05 06:13:55;;;;;;;5.77;2.37;;;1.10;99.90;;;;;;4148752;28;20965;-78
2022/01/05 06:15:57;;;;;;;4.00;2.23;;;1.10;99.90;;;;;;4148834;28;20464;-79
2022/01/05 06:17:59;;;;;;;4.20;2.40;;;1.10;99.90;;;;;;4157230;28;20514;-78
2022/01/05 06:20:00;;;;;;;3.87;1.97;;;1.40;99.90;;;;;;4154563;28;20500;-78
2022/01/05 06:22:02;;;;;;;7.97;2.70;;;1.00;99.90;;;;;;4134119;28;20545;-78
2022/01/05 06:24:05;;;;;;;4.67;2.40;;;1.00;99.90;;;;;;4147722;28;20534;-79
2022/01/05 06:26:08;;;;;;;9.97;2.43;;;1.00;99.90;;;;;;4153399;28;20464;-79
2022/01/05 06:28:11;;;;;;;5.13;2.13;;;1.00;99.90;;;;;;4152124;28;20493;-78
2022/01/05 06:30:13;;;;;;;4.87;2.10;;;0.90;99.90;;;;;;4145172;28;20551;-78
2022/01/05 06:32:15;;;;;;;5.77;2.47;;;0.90;99.90;;;;;;4143899;28;20484;-79
2022/01/05 06:34:17;;;;;;;5.37;2.40;;;0.90;99.90;;;;;;4142297;28;21286;-79
2022/01/05 06:36:18;;;;;;;6.07;2.60;;;0.90;99.90;;;;;;4142502;28;20467;-80
2022/01/05 06:38:20;;;;;;;4.27;2.27;;;0.90;99.90;;;;;;4143983;28;20460;-79
2022/01/05 06:40:22;;;;;;;8.40;2.43;;;0.80;99.90;;;;;;4141917;28;20539;-79
2022/01/05 06:42:25;;;;;;;6.23;2.70;;;0.90;99.90;;;;;;4153579;28;20538;-79
2022/01/05 06:44:27;;;;;;;8.03;2.73;;;0.90;99.90;;;;;;4148267;28;20487;-79
2022/01/05 06:46:29;;;;;;;4.30;2.20;;;0.90;99.90;;;;;;4153052;28;20476;-79
2022/01/05 06:48:31;;;;;;;4.93;2.43;;;1.00;99.90;;;;;;4147286;28;20481;-80
2022/01/05 06:50:32;;;;;;;8.17;2.53;;;1.10;99.90;;;;;;4148550;28;20822;-80
2022/01/05 06:52:34;;;;;;;6.77;2.67;;;1.00;99.90;;;;;;4148573;28;20557;-80
2022/01/05 06:54:36;;;;;;;5.57;2.53;;;1.00;99.90;;;;;;4148925;28;20999;-80
2022/01/05 06:56:38;;;;;;;8.73;2.90;;;1.00;99.90;;;;;;4146774;28;20523;-80
2022/01/05 06:58:41;;;;;;;6.97;3.10;;;1.20;99.90;;;;;;4149327;28;20953;-79
2022/01/05 07:00:43;;;;;;;5.40;2.23;;;1.00;99.90;;;;;;4147031;28;20550;-79
2022/01/05 07:02:44;;;;;;;6.47;2.40;;;1.00;99.90;;;;;;4146814;28;20451;-80
2022/01/05 07:04:46;;;;;;;5.50;2.43;;;1.00;99.90;;;;;;4146037;28;20476;-81
2022/01/05 07:06:48;;;;;;;4.33;2.17;;;1.80;99.90;;;;;;4149544;28;20536;-80
2022/01/05 07:08:50;;;;;;;5.57;2.30;;;1.00;99.90;;;;;;4148537;28;20858;-80
2022/01/05 07:10:51;;;;;;;5.43;2.60;;;1.00;99.90;;;;;;4148568;28;20519;-80
2022/01/05 07:12:54;;;;;;;6.47;2.17;;;1.00;99.90;;;;;;4145110;28;20480;-80
2022/01/05 07:14:57;;;;;;;5.67;2.20;;;1.00;99.90;;;;;;4150632;28;20511;-80
2022/01/05 07:16:59;;;;;;;8.07;2.97;;;1.00;99.90;;;;;;4148482;28;20540;-80
2022/01/05 07:19:01;;;;;;;5.23;2.47;;;1.00;99.90;;;;;;4148607;28;20469;-80
2022/01/05 07:21:03;;;;;;;4.13;2.20;;;1.50;99.90;;;;;;4146660;28;20505;-80
2022/01/05 07:23:04;;;;;;;10.83;2.60;;;1.00;99.90;;;;;;4146062;28;20477;-80
2022/01/05 07:25:07;;;;;;;8.03;2.30;;;0.90;99.90;;;;;;4146253;28;20487;-80
2022/01/05 07:27:09;;;;;;;6.93;2.50;;;0.90;99.90;;;;;;4149405;28;20496;-80
2022/01/05 07:29:11;;;;;;;9.53;3.33;;;1.00;99.90;;;;;;4146410;28;20486;-80
2022/01/05 07:31:14;;;;;;;7.13;3.10;;;0.90;99.90;;;;;;4146538;28;20486;-80
2022/01/05 07:33:16;;;;;;;16.77;3.83;;;0.90;99.90;;;;;;4145796;28;20464;-79
2022/01/05 07:35:17;;;;;;;9.30;3.67;;;1.00;99.90;;;;;;4138914;28;20526;-79
2022/01/05 07:37:19;;;;;;;8.37;4.10;;;1.00;99.90;;;;;;4139714;28;20533;-79
2022/01/05 07:39:21;;;;;;;8.57;3.77;;;1.00;99.90;;;;;;4140968;28;20522;-79
2022/01/05 07:41:22;;;;;;;10.93;4.43;;;1.00;99.90;;;;;;4143090;28;20496;-80
2022/01/05 07:43:24;;;;;;;12.17;4.97;;;1.00;99.90;;;;;;4142548;28;21197;-79
2022/01/05 07:45:26;;;;;;;13.93;4.93;;;1.00;99.90;;;;;;4145219;28;21167;-79
2022/01/05 07:47:30;;;;;;;9.23;4.70;;;0.90;99.90;;;;;;4141438;28;20524;-79
2022/01/05 07:49:32;;;;;;;10.23;4.30;;;1.00;99.90;;;;;;4144851;28;20487;-79
2022/01/05 07:51:34;;;;;;;8.07;3.90;;;1.00;99.90;;;;;;4146650;28;21062;-79
2022/01/05 07:53:36;;;;;;;10.57;4.00;;;1.00;99.90;;;;;;4143716;28;20460;-79
2022/01/05 07:55:38;;;;;;;10.47;3.33;;;1.00;99.90;;;;;;4148423;28;20449;-79
2022/01/05 07:57:39;;;;;;;8.93;3.20;;;1.00;99.90;;;;;;4142987;28;20537;-79
2022/01/05 07:59:41;;;;;;;7.40;2.70;;;1.00;99.90;;;;;;4143623;28;20480;-80
2022/01/05 08:01:43;;;;;;;5.57;2.53;;;1.00;99.90;;;;;;4146037;28;20538;-80
2022/01/05 08:03:46;;;;;;;7.90;2.80;;;1.10;99.90;;;;;;4146102;28;20473;-80
2022/01/05 08:05:50;;;;;;;4.37;2.27;;;1.10;99.90;;;;;;4143088;28;20849;-79
2022/01/05 08:07:51;;;;;;;6.40;2.30;;;1.10;99.90;;;;;;4141389;28;20521;-78
2022/01/05 08:09:53;;;;;;;4.40;2.13;;;1.10;99.90;;;;;;4144699;28;21027;-79
2022/01/05 08:11:55;;;;;;;5.63;2.00;;;1.10;99.90;;;;;;4142418;28;21015;-79
2022/01/05 08:13:57;;;;;;;4.53;1.80;;;1.10;99.90;;;;;;4141737;28;20920;-79
2022/01/05 08:15:58;;;;;;;6.27;2.27;;;1.10;99.90;;;;;;4145985;28;20466;-78
2022/01/05 08:18:00;;;;;;;5.27;2.10;;;1.10;99.90;;;;;;4139531;28;20900;-79
2022/01/05 08:20:06;;;;;;;4.10;1.57;;;1.10;99.90;;;;;;4144867;28;20519;-78
2022/01/05 08:22:08;;;;;;;4.07;1.60;;;1.20;99.90;;;;;;4145706;28;20599;-78
2022/01/05 08:24:11;;;;;;;4.97;1.40;;;1.20;99.90;;;;;;4140399;28;20481;-78
2022/01/05 08:26:13;;;;;;;5.87;1.83;;;1.20;99.90;;;;;;4143424;28;20504;-79
2022/01/05 08:28:16;;;;;;;3.10;1.67;;;1.20;99.90;;;;;;4142855;28;20823;-81
2022/01/05 08:30:20;;;;;;;6.37;1.63;;;1.20;99.90;;;;;;4148531;28;20663;-83
2022/01/05 08:32:22;;;;;;;8.37;2.20;;;1.30;99.90;;;;;;4142330;28;20468;-78
2022/01/05 08:34:27;;;;;;;3.40;1.27;;;1.20;99.90;;;;;;4138344;28;20480;-78
2022/01/05 08:36:31;;;;;;;4.20;1.67;;;1.20;99.90;;;;;;4139787;28;20451;-79
2022/01/05 08:38:35;;;;;;;5.33;2.03;;;1.20;99.90;;;;;;4140305;28;20455;-79
2022/01/05 08:40:37;;;;;;;4.93;1.33;;;1.30;99.90;;;;;;4143441;28;20491;-78
2022/01/05 08:42:39;;;;;;;3.77;1.73;;;1.30;99.90;;;;;;4148265;28;20465;-78
2022/01/05 08:44:41;;;;;;;3.17;1.37;;;1.30;99.90;;;;;;4147885;28;20461;-78
2022/01/05 08:46:43;;;;;;;7.07;1.57;;;1.30;99.90;;;;;;4152166;28;20491;-79
2022/01/05 08:48:44;;;;;;;3.73;1.23;;;1.30;99.90;;;;;;4149263;28;20894;-77
2022/01/05 08:50:47;;;;;;;3.10;1.37;;;1.40;99.90;;;;;;4150567;28;20457;-78
2022/01/05 08:52:51;;;;;;;3.10;1.50;;;1.40;99.90;;;;;;4153854;28;20453;-77
2022/01/05 08:54:53;;;;;;;3.30;1.30;;;1.40;99.90;;;;;;4152508;28;20471;-80
2022/01/05 08:56:55;;;;;;;4.83;1.60;;;1.40;99.90;;;;;;4142652;28;20474;-78
2022/01/05 08:58:57;;;;;;;3.53;1.70;;;1.40;99.90;;;;;;4145097;28;20504;-78
2022/01/05 09:00:58;;;;;;;3.80;1.30;;;1.40;99.90;;;;;;4146143;28;20484;-78
2022/01/05 09:03:02;;;;;;;7.37;1.73;;;1.40;99.90;;;;;;4147193;28;20631;-78
2022/01/05 09:05:05;;;;;;;7.67;2.13;;;1.40;99.90;;;;;;4147022;28;20464;-78
2022/01/05 09:07:07;;;;;;;3.70;1.40;;;1.40;99.90;;;;;;4149035;28;20985;-78
2022/01/05 09:09:10;;;;;;;6.10;1.83;;;1.40;99.90;;;;;;4148897;28;20462;-77
2022/01/05 09:11:12;;;;;;;4.27;1.53;;;1.40;99.90;;;;;;4150230;28;20477;-78
2022/01/05 09:13:14;;;;;;;5.23;1.60;;;1.40;99.90;;;;;;4151891;28;20464;-76
2022/01/05 09:15:16;;;;;;;5.93;2.03;;;1.40;99.90;;;;;;4148324;28;20471;-76
2022/01/05 09:17:18;;;;;;;11.57;2.10;;;1.40;99.90;;;;;;4151930;28;20535;-76
2022/01/05 09:19:20;;;;;;;10.90;2.60;;;1.40;99.90;;;;;;4149955;28;20460;-76
2022/01/05 09:21:21;;;;;;;7.00;2.33;;;1.30;99.90;;;;;;4150095;28;20554;-77
2022/01/05 09:23:23;;;;;;;13.07;3.43;;;1.40;99.90;;;;;;4143886;28;20469;-76
2022/01/05 09:25:26;;;;;;;11.97;2.60;;;1.30;99.90;;;;;;4145572;28;20455;-77
2022/01/05 09:27:28;;;;;;;7.80;3.03;;;1.30;99.90;;;;;;4153566;28;20493;-78
2022/01/05 09:29:29;;;;;;;6.83;3.50;;;1.30;99.90;;;;;;4151621;28;20519;-76
2022/01/05 09:31:33;;;;;;;10.87;2.93;;;1.30;99.90;;;;;;4151758;28;20456;-77
2022/01/05 09:33:34;;;;;;;10.23;3.20;;;1.30;99.90;;;;;;4150334;28;20476;-77
2022/01/05 09:35:36;;;;;;;8.57;2.90;;;1.30;99.90;;;;;;4152275;28;20464;-77
2022/01/05 09:37:51;;;;;;;7.87;2.97;;;1.40;99.90;;;;;;4145886;28;20481;-77
2022/01/05 09:42:14;;;;;;;8.53;3.30;;;1.40;99.90;;;;;;4153227;28;21125;-75
2022/01/05 09:44:16;;;;;;;12.87;3.67;;;1.40;99.90;;;;;;4149594;28;20464;-76
2022/01/05 09:46:30;;;;;;;16.80;4.07;;;1.40;99.90;;;;;;4154024;28;20459;-75
2022/01/05 09:48:49;;;;;;;9.70;3.80;;;1.50;99.90;;;;;;4150007;28;20450;-78
2022/01/05 09:50:58;;;;;;;6.80;2.80;;;1.50;99.90;;;;;;4148638;28;20481;-78
2022/01/05 09:53:00;;;;;;;8.90;3.13;;;1.50;99.90;;;;;;4155439;28;20454;-77
2022/01/05 09:55:03;;;;;;;8.00;2.87;;;1.50;99.90;;;;;;4149020;28;20521;-77
2022/01/05 09:57:05;;;;;;;6.20;2.97;;;1.50;99.90;;;;;;4149990;28;20489;-77
2022/01/05 09:59:08;;;;;;;12.43;3.00;;;1.60;99.90;;;;;;4149235;28;20967;-78
2022/01/05 10:01:10;;;;;;;10.40;3.07;;;1.60;99.90;;;;;;4149763;28;20508;-78
2022/01/05 10:03:14;;;;;;;9.13;2.80;;;1.60;99.90;;;;;;4153176;28;20522;-77
2022/01/05 10:05:17;;;;;;;6.00;3.00;;;1.60;99.90;;;;;;4147604;28;20492;-76
2022/01/05 10:07:19;;;;;;;11.03;2.90;;;1.60;99.90;;;;;;4149250;28;20527;-76
2022/01/05 10:09:21;;;;;;;5.70;2.57;;;1.70;99.90;;;;;;4148352;28;20626;-78
2022/01/05 10:11:23;;;;;;;9.27;2.87;;;1.70;99.90;;;;;;4149552;28;20461;-75
2022/01/05 10:13:25;;;;;;;4.60;2.30;;;1.70;99.90;;;;;;4149601;28;20561;-75
2022/01/05 10:15:28;;;;;;;10.30;2.93;;;1.70;99.90;;;;;;4149108;28;20456;-75
2022/01/05 10:17:32;;;;;;;14.53;2.63;;;1.70;99.90;;;;;;4147453;28;20662;-76
2022/01/05 10:19:35;;;;;;;13.17;2.53;;;1.80;99.90;;;;;;4148397;28;20472;-76
2022/01/05 10:21:39;;;;;;;5.50;2.47;;;1.80;99.90;;;;;;4153270;28;20493;-77
2022/01/05 10:23:44;;;;;;;8.00;2.47;;;1.80;99.90;;;;;;4143505;28;20561;-77
2022/01/05 10:25:46;;;;;;;11.57;2.60;;;1.80;99.90;;;;;;4149284;28;20476;-77
2022/01/05 10:27:56;;;;;;;7.27;2.27;;;1.80;99.90;;;;;;4149278;28;20876;-77
2022/01/05 10:30:00;;;;;;;4.90;1.90;;;2.00;99.90;;;;;;4148082;28;20461;-77
2022/01/05 10:32:08;;;;;;;6.30;2.00;;;1.80;99.90;;;;;;4151957;28;20454;-77
2022/01/05 10:34:15;;;;;;;6.43;2.07;;;1.90;99.90;;;;;;4149299;28;20967;-77
2022/01/05 10:36:17;;;;;;;11.67;2.40;;;1.90;99.90;;;;;;4150201;28;20876;-77
2022/01/05 10:38:29;;;;;;;8.70;2.23;;;1.90;99.90;;;;;;4148562;28;20831;-76
2022/01/05 10:40:34;;;;;;;7.57;2.13;;;2.00;99.90;;;;;;4148463;28;20923;-77
2022/01/05 10:42:37;;;;;;;5.77;2.60;;;2.00;99.90;;;;;;4149637;28;20496;-76
2022/01/05 10:44:41;;;;;;;7.87;2.33;;;2.10;99.90;;;;;;4149825;28;20516;-76
2022/01/05 10:46:45;;;;;;;6.47;2.33;;;2.10;99.90;;;;;;4149309;28;20861;-76
2022/01/05 10:48:56;;;;;;;11.83;3.10;;;2.20;99.90;;;;;;4154079;28;20474;-76
2022/01/05 10:51:04;;;;;;;4.70;1.87;;;2.20;99.90;;;;;;4144182;28;20529;-78